This is the latest recevied weather packets stored in our database for station/object MB7IWY-13. If no packets are shown the sender has not sent any weather packets the latest 10 day(s).
| Time | Temp. | Humidity | Pressure | Rain* | Wind** | Luminosity | Snow |
|---|---|---|---|---|---|---|---|
| 1777460943 | 13.89° C | 53% | 1051.1 hPa | 0 mm | - | 0 W/m² | - |
| 1777457904 | 12.22° C | 61% | 1051.1 hPa | 0 mm | - | 0 W/m² | - |
| 1777457342 | 12.22° C | 61% | 1051.1 hPa | 0 mm | - | 0 W/m² | - |
| 1777453743 | 10.56° C | 70% | 1051.1 hPa | 0 mm | - | 0 W/m² | - |
| 1777453203 | 9.44° C | 75% | 1051.1 hPa | 0 mm | - | 0 W/m² | - |
| 1777452864 | 9.44° C | 75% | 1051.1 hPa | 0 mm | - | 0 W/m² | - |
| 1777448163 | 7.78° C | 80% | 1052.2 hPa | 0 mm | - | 0 W/m² | - |
| 1777446543 | 6.67° C | 82% | 1052.2 hPa | 0 mm | - | 0 W/m² | - |
| 1777445103 | 5.56° C | 84% | 1051.1 hPa | 0 mm | - | 0 W/m² | - |
| 1777442043 | 4.44° C | 86% | 1051.1 hPa | 0 mm | - | 0 W/m² | - |
| 1777441503 | 4.44° C | 86% | 1051.1 hPa | 0 mm | - | 0 W/m² | - |
| 1777437903 | 3.89° C | 88% | 1051.1 hPa | 0 mm | - | 0 W/m² | - |
| 1777436304 | 3.89° C | 89% | 1052.2 hPa | 0 mm | - | 0 W/m² | - |
| 1777435203 | 3.89° C | 90% | 1052.2 hPa | 0 mm | - | 0 W/m² | - |
| 1777433223 | 3.89° C | 90% | 1052.2 hPa | 0 mm | - | 0 W/m² | - |
| 1777431603 | 3.89° C | 91% | 1052.2 hPa | 0 mm | - | 0 W/m² | - |
| 1777431243 | 3.89° C | 91% | 1052.2 hPa | 0 mm | - | 0 W/m² | - |
| 1777430184 | 3.89° C | 91% | 1052.2 hPa | 0 mm | - | 0 W/m² | - |
| 1777429623 | 3.89° C | 91% | 1052.2 hPa | 0 mm | - | 0 W/m² | - |
| 1777429083 | 3.89° C | 91% | 1052.2 hPa | 0 mm | - | 0 W/m² | - |
| 1777428564 | 3.89° C | 91% | 1052.2 hPa | 0 mm | - | 0 W/m² | - |
| 1777420443 | 4.44° C | 90% | 1052.2 hPa | 0 mm | - | 0 W/m² | - |
| 1777419363 | 4.44° C | 90% | 1052.2 hPa | 0 mm | - | 0 W/m² | - |
| 1777414683 | 5.56° C | 86% | 1052.2 hPa | 0 mm | - | 0 W/m² | - |
| 1777411623 | 6.67° C | 82% | 1052.2 hPa | 0 mm | - | 0 W/m² | - |
* Rain latest hour (hover to see other rain measurements)
** Current wind speed in m/s (hover to see current wind gust speed)